createdAt,value
2023-03-26T00:01:33.327Z,9.20
2023-03-26T00:04:00.290Z,9.20
2023-03-26T00:06:29.288Z,9.19
2023-03-26T00:08:57.492Z,9.20
2023-03-26T00:11:26.560Z,9.18
2023-03-26T00:13:56.720Z,9.18
2023-03-26T00:16:24.998Z,9.18
2023-03-26T00:18:51.657Z,9.18
2023-03-26T00:21:21.924Z,9.19
2023-03-26T00:26:17.458Z,9.16
2023-03-26T00:28:44.535Z,9.15
2023-03-26T00:31:14.534Z,9.15
2023-03-26T00:33:41.995Z,9.13
2023-03-26T00:36:11.885Z,9.10
2023-03-26T00:38:39.372Z,9.08
2023-03-26T00:41:08.078Z,9.06
2023-03-26T00:43:36.084Z,9.07
2023-03-26T00:46:03.008Z,9.05
2023-03-26T00:48:44.034Z,9.04
2023-03-26T00:51:11.948Z,9.03
2023-03-26T00:53:38.865Z,9.05
2023-03-26T00:56:06.619Z,9.06
2023-03-26T00:58:33.807Z,9.06
2023-03-26T01:01:10.086Z,9.08
2023-03-26T01:03:38.597Z,9.09
2023-03-26T01:06:11.208Z,9.09
2023-03-26T01:08:47.165Z,9.09
2023-03-26T01:11:23.896Z,9.09
2023-03-26T01:14:04.727Z,9.08
2023-03-26T01:16:44.857Z,9.07
2023-03-26T01:19:29.560Z,9.06
2023-03-26T01:21:57.910Z,9.04
2023-03-26T01:24:24.351Z,9.03
2023-03-26T01:27:04.702Z,9.04
2023-03-26T01:29:45.344Z,9.02
2023-03-26T01:32:44.384Z,9.00
2023-03-26T01:35:31.363Z,9.00
2023-03-26T01:38:37.536Z,9.00
2023-03-26T01:41:14.187Z,9.00
2023-03-26T01:44:11.891Z,8.97
2023-03-26T01:46:39.300Z,8.93
2023-03-26T01:49:12.889Z,8.93
2023-03-26T01:51:42.134Z,8.88
2023-03-26T01:54:18.578Z,8.86
2023-03-26T01:57:03.713Z,8.84
2023-03-26T01:59:50.570Z,8.82
2023-03-26T02:02:19.528Z,8.79
2023-03-26T02:05:01.522Z,8.76
2023-03-26T02:07:50.925Z,8.74
2023-03-26T02:10:29.536Z,8.69
2023-03-26T02:12:57.563Z,8.66
2023-03-26T02:15:24.277Z,8.62
2023-03-26T02:17:52.338Z,8.58
2023-03-26T02:20:21.115Z,8.56
2023-03-26T02:22:48.301Z,8.54
2023-03-26T02:25:20.340Z,8.50
2023-03-26T02:27:49.697Z,8.46
2023-03-26T02:30:21.549Z,8.44
2023-03-26T02:32:52.118Z,8.42
2023-03-26T02:35:21.278Z,8.40
2023-03-26T02:37:51.181Z,8.40
2023-03-26T02:40:22.376Z,8.37
2023-03-26T02:42:50.277Z,8.36
2023-03-26T02:45:16.924Z,8.35
2023-03-26T02:48:22.123Z,8.34
2023-03-26T02:50:54.139Z,8.33
2023-03-26T02:53:41.257Z,8.32
2023-03-26T02:56:26.166Z,8.31
2023-03-26T02:59:05.955Z,8.28
2023-03-26T03:01:35.031Z,8.25
2023-03-26T03:04:04.238Z,8.23
2023-03-26T03:06:34.908Z,8.22
2023-03-26T03:09:02.741Z,8.20
2023-03-26T03:11:35.537Z,8.21
2023-03-26T03:14:01.954Z,8.21
2023-03-26T03:16:30.296Z,8.21
2023-03-26T03:18:59.851Z,8.22
2023-03-26T03:21:34.767Z,8.21
2023-03-26T03:24:01.356Z,8.23
2023-03-26T03:26:31.820Z,8.24
2023-03-26T03:29:09.220Z,8.23
2023-03-26T03:31:35.961Z,8.26
2023-03-26T03:34:07.612Z,8.25
2023-03-26T03:36:38.513Z,8.28
2023-03-26T03:39:14.898Z,8.31
2023-03-26T03:41:41.708Z,8.31
2023-03-26T03:44:12.962Z,8.32
2023-03-26T03:46:39.432Z,8.32
2023-03-26T03:49:05.975Z,8.31
2023-03-26T03:51:36.440Z,8.31
2023-03-26T03:54:06.544Z,8.28
2023-03-26T03:56:45.749Z,8.29
2023-03-26T03:59:28.300Z,8.24
2023-03-26T04:01:54.848Z,8.23
2023-03-26T04:04:35.083Z,8.24
2023-03-26T04:07:05.954Z,8.24
2023-03-26T04:09:42.013Z,8.24
2023-03-26T04:12:16.564Z,8.25
2023-03-26T04:14:55.738Z,8.25
2023-03-26T04:17:22.944Z,8.28
2023-03-26T04:19:54.917Z,8.28
2023-03-26T04:22:36.368Z,8.30
2023-03-26T04:25:06.058Z,8.29
2023-03-26T04:27:58.351Z,8.29
2023-03-26T04:30:42.254Z,8.27
2023-03-26T04:33:24.895Z,8.23
2023-03-26T04:35:52.541Z,8.21
2023-03-26T04:38:20.540Z,8.19
2023-03-26T04:40:50.889Z,8.21
2023-03-26T04:43:18.126Z,8.24
2023-03-26T04:46:23.638Z,8.25
2023-03-26T04:49:00.567Z,8.26
2023-03-26T04:51:34.881Z,8.25
2023-03-26T04:54:02.592Z,8.26
2023-03-26T04:56:52.768Z,8.29
2023-03-26T04:59:34.638Z,8.30
2023-03-26T05:02:06.175Z,8.31
2023-03-26T05:04:43.726Z,8.32
2023-03-26T05:07:11.063Z,8.34
2023-03-26T05:09:45.427Z,8.36
2023-03-26T05:12:14.622Z,8.40
2023-03-26T05:14:51.591Z,8.41
2023-03-26T05:17:30.980Z,8.43
2023-03-26T05:19:57.902Z,8.44
2023-03-26T05:22:25.186Z,8.47
2023-03-26T05:25:10.879Z,8.45
2023-03-26T05:27:38.484Z,8.41
2023-03-26T05:30:06.227Z,8.37
2023-03-26T05:32:40.338Z,8.37
2023-03-26T05:35:07.587Z,8.41
2023-03-26T05:37:34.108Z,8.44
2023-03-26T05:40:07.705Z,8.48
2023-03-26T05:42:41.537Z,8.47
2023-03-26T05:45:26.767Z,8.46
2023-03-26T05:47:54.858Z,8.46
2023-03-26T05:50:23.738Z,8.42
2023-03-26T05:52:53.159Z,8.41
2023-03-26T05:55:38.018Z,8.38
2023-03-26T05:58:26.851Z,8.40
2023-03-26T06:01:25.944Z,8.42
2023-03-26T06:04:15.714Z,8.40
2023-03-26T06:06:52.669Z,8.36
2023-03-26T06:09:20.024Z,8.33
2023-03-26T06:11:46.532Z,8.29
2023-03-26T06:14:12.968Z,8.26
2023-03-26T06:16:50.637Z,8.26
2023-03-26T06:19:20.376Z,8.20
2023-03-26T06:21:50.293Z,8.13
2023-03-26T06:24:21.721Z,8.12
2023-03-26T06:27:05.326Z,8.10
2023-03-26T06:29:34.709Z,8.13
2023-03-26T06:32:20.213Z,8.17
2023-03-26T06:35:07.787Z,8.15
2023-03-26T06:37:34.330Z,8.10
2023-03-26T06:40:03.368Z,8.05
2023-03-26T06:43:09.054Z,8.00
2023-03-26T06:46:06.347Z,7.98
2023-03-26T06:48:40.785Z,7.99
2023-03-26T06:51:23.872Z,7.93
2023-03-26T06:54:16.641Z,7.93
2023-03-26T06:56:48.077Z,7.91
2023-03-26T06:59:39.522Z,7.98
2023-03-26T07:02:24.521Z,7.96
2023-03-26T07:05:09.546Z,7.98
2023-03-26T07:07:54.539Z,8.01
2023-03-26T07:10:56.202Z,7.97
2023-03-26T07:13:42.337Z,7.90
2023-03-26T07:16:27.279Z,7.90
2023-03-26T07:19:17.178Z,7.85
2023-03-26T07:21:44.410Z,7.84
2023-03-26T07:24:43.257Z,7.89
2023-03-26T07:27:37.665Z,7.97
2023-03-26T07:30:12.296Z,8.00
2023-03-26T07:33:33.859Z,8.00
2023-03-26T07:36:28.560Z,8.05
2023-03-26T07:39:34.761Z,8.06
2023-03-26T07:42:46.350Z,8.06
2023-03-26T07:45:44.064Z,8.04
2023-03-26T07:48:27.367Z,7.98
2023-03-26T07:51:00.157Z,8.02
2023-03-26T07:53:45.602Z,7.99
2023-03-26T07:56:42.801Z,8.02
2023-03-26T07:59:36.814Z,8.02
2023-03-26T08:02:46.656Z,8.06
2023-03-26T08:05:34.757Z,8.08
2023-03-26T08:08:08.673Z,8.08
2023-03-26T08:11:07.165Z,7.97
2023-03-26T08:13:57.083Z,7.99
2023-03-26T08:16:31.653Z,8.03
2023-03-26T08:19:29.399Z,7.97
2023-03-26T08:22:02.206Z,7.97
2023-03-26T08:25:16.681Z,8.01
2023-03-26T08:27:58.818Z,8.01
2023-03-26T08:30:27.351Z,7.97
2023-03-26T08:32:59.171Z,7.91
2023-03-26T08:35:27.639Z,7.92
2023-03-26T08:37:54.404Z,7.86
2023-03-26T08:40:59.018Z,7.87
2023-03-26T08:43:56.446Z,7.85
2023-03-26T08:46:42.119Z,7.87
2023-03-26T08:49:18.996Z,7.90
2023-03-26T08:52:17.376Z,7.90
2023-03-26T08:55:14.776Z,7.90
2023-03-26T08:58:09.287Z,7.78
2023-03-26T09:01:00.161Z,7.72
2023-03-26T09:03:54.338Z,7.67
2023-03-26T09:06:57.208Z,7.73
2023-03-26T09:09:35.758Z,7.72
2023-03-26T09:12:22.839Z,7.69
2023-03-26T09:14:56.775Z,7.60
2023-03-26T09:17:35.449Z,7.60
2023-03-26T09:20:14.635Z,7.56
2023-03-26T09:23:23.141Z,7.57
2023-03-26T09:26:03.440Z,7.66
2023-03-26T09:28:50.161Z,7.74
2023-03-26T09:31:57.748Z,7.64
2023-03-26T09:34:39.486Z,7.61
2023-03-26T09:37:36.255Z,7.66
2023-03-26T09:40:43.867Z,7.72
2023-03-26T09:43:44.517Z,7.66
2023-03-26T09:46:34.409Z,7.57
2023-03-26T09:49:10.785Z,7.52
2023-03-26T09:51:57.775Z,7.50
2023-03-26T09:54:46.408Z,7.57
2023-03-26T09:57:18.976Z,7.65
2023-03-26T09:59:54.152Z,7.67
2023-03-26T10:02:58.894Z,7.66
2023-03-26T10:05:57.503Z,7.61
2023-03-26T10:08:32.201Z,7.63
2023-03-26T10:11:02.863Z,7.68
2023-03-26T10:13:54.664Z,7.64
2023-03-26T10:16:41.740Z,7.65
2023-03-26T10:19:31.280Z,7.63
2023-03-26T10:22:30.420Z,7.70
2023-03-26T10:25:14.923Z,7.63
2023-03-26T10:28:06.330Z,7.64
2023-03-26T10:31:01.009Z,7.69
2023-03-26T10:33:40.502Z,7.73
2023-03-26T10:36:35.341Z,7.78
2023-03-26T10:39:35.944Z,7.75
2023-03-26T10:42:08.937Z,7.80
2023-03-26T10:44:49.371Z,7.81
2023-03-26T10:47:27.799Z,7.89
2023-03-26T10:50:29.290Z,7.89
2023-03-26T10:53:11.389Z,7.86
2023-03-26T10:55:41.515Z,7.88
2023-03-26T10:58:26.866Z,7.84
2023-03-26T11:01:00.109Z,7.85
2023-03-26T11:03:43.506Z,7.91
2023-03-26T11:06:25.497Z,7.99
2023-03-26T11:09:02.037Z,7.99
2023-03-26T11:11:46.663Z,8.07
2023-03-26T11:14:35.165Z,8.12
2023-03-26T11:17:40.134Z,8.15
2023-03-26T11:20:17.834Z,8.13
2023-03-26T11:22:56.584Z,8.10
2023-03-26T11:25:34.715Z,8.13
2023-03-26T11:28:25.732Z,8.21
2023-03-26T11:31:18.481Z,8.29
2023-03-26T11:33:50.299Z,8.38
2023-03-26T11:36:22.630Z,8.42
2023-03-26T11:38:57.507Z,8.50
2023-03-26T11:41:32.359Z,8.54
2023-03-26T11:44:11.262Z,8.48
2023-03-26T11:46:42.562Z,8.38
2023-03-26T11:49:12.753Z,8.40
2023-03-26T11:51:41.968Z,8.36
2023-03-26T11:54:12.160Z,8.39
2023-03-26T11:57:05.213Z,8.37
2023-03-26T11:59:56.492Z,8.35
2023-03-26T12:02:32.353Z,8.42
2023-03-26T12:05:21.785Z,8.48
2023-03-26T12:08:00.041Z,8.52
2023-03-26T12:10:41.364Z,8.40
2023-03-26T12:13:37.336Z,8.41
2023-03-26T12:16:09.782Z,8.55
2023-03-26T12:18:38.123Z,8.72
2023-03-26T12:21:19.411Z,8.87
2023-03-26T12:23:52.346Z,9.02
2023-03-26T12:26:33.929Z,9.00
2023-03-26T12:29:15.274Z,9.00
2023-03-26T12:32:06.367Z,8.82
2023-03-26T12:34:35.372Z,8.72
2023-03-26T12:37:04.099Z,8.77
2023-03-26T12:40:10.521Z,8.70
2023-03-26T12:44:53.177Z,8.74
2023-03-26T12:45:40.648Z,8.84
2023-03-26T12:48:12.311Z,8.87
2023-03-26T12:51:00.703Z,8.99
2023-03-26T12:53:33.272Z,8.91
2023-03-26T12:56:21.398Z,8.96
2023-03-26T12:59:06.695Z,8.89
2023-03-26T13:01:46.058Z,8.92
2023-03-26T13:05:05.746Z,8.97
2023-03-26T13:08:11.161Z,8.96
2023-03-26T13:10:58.683Z,9.00
2023-03-26T13:13:46.371Z,9.09
2023-03-26T13:16:36.093Z,9.25
2023-03-26T13:19:34.156Z,9.27
2023-03-26T13:22:33.073Z,9.24
2023-03-26T13:25:37.066Z,9.28
2023-03-26T13:28:22.310Z,9.21
2023-03-26T13:31:03.954Z,9.21
2023-03-26T13:33:51.877Z,9.13
2023-03-26T13:36:29.722Z,9.16
2023-03-26T13:39:18.506Z,9.16
2023-03-26T13:42:09.198Z,9.12
2023-03-26T13:45:05.108Z,9.15
2023-03-26T13:47:38.068Z,9.15
2023-03-26T13:50:39.220Z,9.17
2023-03-26T13:53:13.779Z,9.25
2023-03-26T13:55:49.069Z,9.19
2023-03-26T13:58:36.749Z,9.17
2023-03-26T14:01:18.554Z,9.16
2023-03-26T14:04:10.641Z,9.13
2023-03-26T14:06:57.295Z,8.98
2023-03-26T14:09:39.181Z,8.86
2023-03-26T14:12:31.940Z,8.89
2023-03-26T14:15:17.770Z,8.95
2023-03-26T14:17:53.402Z,8.99
2023-03-26T14:20:44.758Z,9.02
2023-03-26T14:23:25.768Z,9.11
2023-03-26T14:26:26.443Z,9.18
2023-03-26T14:29:23.843Z,9.16
2023-03-26T14:32:13.987Z,9.11
2023-03-26T14:35:04.841Z,9.01
2023-03-26T14:38:00.944Z,8.95
2023-03-26T14:40:36.180Z,8.81
2023-03-26T14:43:30.291Z,8.80
2023-03-26T14:46:11.136Z,8.78
2023-03-26T14:49:06.699Z,8.80
2023-03-26T14:51:51.617Z,8.75
2023-03-26T14:54:23.089Z,8.70
2023-03-26T14:57:04.770Z,8.71
2023-03-26T14:59:55.910Z,8.77
2023-03-26T15:02:22.291Z,8.78
2023-03-26T15:05:03.998Z,8.67
2023-03-26T15:07:36.461Z,8.72
2023-03-26T15:10:22.623Z,8.71
2023-03-26T15:13:03.646Z,8.76
2023-03-26T15:15:41.908Z,8.75
2023-03-26T15:18:48.029Z,8.77
2023-03-26T15:21:39.717Z,8.83
2023-03-26T15:24:21.389Z,8.74
2023-03-26T15:27:25.465Z,8.72
2023-03-26T15:30:13.555Z,8.66
2023-03-26T15:32:57.885Z,8.66
2023-03-26T15:35:47.528Z,8.67
2023-03-26T15:38:26.983Z,8.56
2023-03-26T15:41:05.420Z,8.48
2023-03-26T15:44:24.138Z,8.44
2023-03-26T15:46:57.062Z,8.34
2023-03-26T15:49:26.372Z,8.37
2023-03-26T15:52:12.537Z,8.36
2023-03-26T15:54:53.351Z,8.32
2023-03-26T15:57:32.404Z,8.27
2023-03-26T16:00:23.504Z,8.34
2023-03-26T16:03:11.294Z,8.37
2023-03-26T16:05:49.938Z,8.29
2023-03-26T16:08:38.730Z,8.28
2023-03-26T16:11:12.368Z,8.28
2023-03-26T16:13:41.241Z,8.28
2023-03-26T16:16:14.342Z,8.41
2023-03-26T16:18:54.446Z,8.40
2023-03-26T16:21:34.521Z,8.41
2023-03-26T16:24:03.704Z,8.43
2023-03-26T16:26:51.589Z,8.39
2023-03-26T16:29:22.299Z,8.34
2023-03-26T16:32:09.927Z,8.21
2023-03-26T16:34:52.861Z,8.09
2023-03-26T16:37:50.265Z,8.06
2023-03-26T16:40:16.840Z,8.12
2023-03-26T16:42:49.041Z,8.16
2023-03-26T16:45:33.618Z,8.13
2023-03-26T16:48:08.852Z,8.11
2023-03-26T16:51:04.691Z,8.16
2023-03-26T16:53:49.073Z,8.05
2023-03-26T16:56:28.868Z,7.98
2023-03-26T16:59:07.726Z,7.98
2023-03-26T17:01:46.529Z,7.99
2023-03-26T17:04:20.537Z,8.00
2023-03-26T17:07:08.903Z,7.89
2023-03-26T17:09:38.286Z,7.91
2023-03-26T17:12:14.462Z,7.92
2023-03-26T17:15:18.641Z,7.97
2023-03-26T17:18:03.379Z,7.97
2023-03-26T17:20:50.102Z,7.87
2023-03-26T17:23:39.908Z,7.81
2023-03-26T17:26:23.860Z,7.66
2023-03-26T17:29:23.970Z,7.58
2023-03-26T17:32:14.722Z,7.62
2023-03-26T17:34:50.412Z,7.65
2023-03-26T17:37:16.950Z,7.72
2023-03-26T17:39:43.388Z,7.76
2023-03-26T17:42:15.902Z,7.71
2023-03-26T17:44:46.153Z,7.63
2023-03-26T17:47:50.054Z,7.61
2023-03-26T17:50:24.134Z,7.54
2023-03-26T17:52:58.106Z,7.52
2023-03-26T17:55:30.921Z,7.53
2023-03-26T17:58:00.212Z,7.53
2023-03-26T18:00:39.894Z,7.51
2023-03-26T18:03:18.744Z,7.52
2023-03-26T18:05:46.918Z,7.51
2023-03-26T18:08:31.958Z,7.41
2023-03-26T18:11:19.640Z,7.41
2023-03-26T18:13:52.352Z,7.42
2023-03-26T18:16:36.897Z,7.48
2023-03-26T18:19:18.111Z,7.48
2023-03-26T18:21:51.632Z,7.51
2023-03-26T18:24:27.504Z,7.58
2023-03-26T18:26:58.400Z,7.57
2023-03-26T18:29:31.896Z,7.57
2023-03-26T18:32:17.371Z,7.51
2023-03-26T18:35:08.197Z,7.42
2023-03-26T18:37:38.516Z,7.38
2023-03-26T18:40:15.365Z,7.36
2023-03-26T18:42:45.786Z,7.31
2023-03-26T18:45:28.854Z,7.39
2023-03-26T18:47:59.295Z,7.40
2023-03-26T18:50:29.252Z,7.33
2023-03-26T18:52:59.296Z,7.29
2023-03-26T18:55:28.225Z,7.30
2023-03-26T18:57:54.769Z,7.30
2023-03-26T19:00:25.343Z,7.32
2023-03-26T19:03:02.761Z,7.22
2023-03-26T19:05:32.957Z,7.22
2023-03-26T19:08:03.605Z,7.21
2023-03-26T19:10:32.953Z,7.25
2023-03-26T19:13:04.025Z,7.25
2023-03-26T19:15:33.152Z,7.30
2023-03-26T19:18:07.143Z,7.28
2023-03-26T19:20:43.804Z,7.29
2023-03-26T19:23:15.734Z,7.28
2023-03-26T19:25:47.802Z,7.30
2023-03-26T19:28:18.487Z,7.30
2023-03-26T19:30:45.083Z,7.27
2023-03-26T19:33:18.569Z,7.24
2023-03-26T19:35:51.628Z,7.12
2023-03-26T19:38:23.684Z,7.07
2023-03-26T19:40:57.815Z,7.06
2023-03-26T19:43:26.202Z,7.09
2023-03-26T19:46:00.195Z,7.14
2023-03-26T19:48:45.264Z,7.19
2023-03-26T19:51:22.829Z,7.22
2023-03-26T19:53:54.116Z,7.22
2023-03-26T19:56:22.105Z,7.19
2023-03-26T19:58:50.114Z,7.18
2023-03-26T20:01:21.194Z,7.02
2023-03-26T20:03:51.428Z,6.99
2023-03-26T20:06:27.861Z,7.00
2023-03-26T20:09:01.058Z,7.00
2023-03-26T20:11:39.099Z,6.93
2023-03-26T20:14:16.943Z,6.88
2023-03-26T20:16:45.366Z,6.89
2023-03-26T20:19:14.093Z,6.79
2023-03-26T20:21:41.214Z,6.70
2023-03-26T20:24:13.224Z,6.68
2023-03-26T20:26:39.680Z,6.78
2023-03-26T20:29:06.266Z,6.81
2023-03-26T20:31:32.778Z,6.80
2023-03-26T20:33:59.621Z,6.76
2023-03-26T20:36:34.215Z,6.71
2023-03-26T20:39:08.487Z,6.76
2023-03-26T20:41:37.961Z,6.80
2023-03-26T20:44:13.378Z,6.78
2023-03-26T20:46:39.868Z,6.73
2023-03-26T20:49:06.601Z,6.68
2023-03-26T20:51:33.019Z,6.72
2023-03-26T20:54:00.489Z,6.74
2023-03-26T20:56:27.085Z,6.67
2023-03-26T20:59:09.655Z,6.62
2023-03-26T21:01:38.078Z,6.56
2023-03-26T21:04:05.289Z,6.56
2023-03-26T21:06:32.112Z,6.67
2023-03-26T21:08:58.723Z,6.64
2023-03-26T21:11:56.900Z,6.68
2023-03-26T21:14:39.207Z,6.66
2023-03-26T21:17:08.010Z,6.64
2023-03-26T21:19:34.814Z,6.67
2023-03-26T21:22:28.734Z,6.71
2023-03-26T21:25:15.558Z,6.76
2023-03-26T21:28:05.848Z,6.75
2023-03-26T21:30:34.164Z,6.70
2023-03-26T21:33:01.499Z,6.69
2023-03-26T21:35:28.309Z,6.65
2023-03-26T21:37:57.554Z,6.54
2023-03-26T21:40:24.290Z,6.49
2023-03-26T21:42:52.394Z,6.52
2023-03-26T21:45:19.670Z,6.49
2023-03-26T21:47:46.904Z,6.52
2023-03-26T21:50:16.827Z,6.57
2023-03-26T21:52:47.115Z,6.61
2023-03-26T21:55:24.269Z,6.60
2023-03-26T21:57:59.599Z,6.60
2023-03-26T22:00:43.277Z,6.59
2023-03-26T22:03:37.445Z,6.50
2023-03-26T22:06:15.461Z,6.42
2023-03-26T22:08:42.631Z,6.41
2023-03-26T22:11:11.263Z,6.47
2023-03-26T22:13:38.881Z,6.43
2023-03-26T22:16:07.506Z,6.45
2023-03-26T22:18:34.340Z,6.47
2023-03-26T22:21:01.180Z,6.42
2023-03-26T22:23:34.081Z,6.37
2023-03-26T22:26:00.521Z,6.30
2023-03-26T22:28:27.076Z,6.34
2023-03-26T22:30:53.679Z,6.37
2023-03-26T22:33:20.320Z,6.33
2023-03-26T22:35:47.300Z,6.36
2023-03-26T22:38:14.913Z,6.39
2023-03-26T22:40:41.333Z,6.44
2023-03-26T22:43:07.795Z,6.47
2023-03-26T22:45:34.250Z,6.48
2023-03-26T22:48:04.488Z,6.49
2023-03-26T22:50:32.155Z,6.46
2023-03-26T22:52:58.588Z,6.49
2023-03-26T22:55:28.514Z,6.49
2023-03-26T22:57:56.258Z,6.42
2023-03-26T23:00:22.748Z,6.43
2023-03-26T23:02:49.935Z,6.44
2023-03-26T23:05:17.588Z,6.48
2023-03-26T23:07:45.947Z,6.47
2023-03-26T23:10:13.031Z,6.42
2023-03-26T23:12:40.288Z,6.23
2023-03-26T23:15:07.974Z,5.96
2023-03-26T23:17:36.021Z,5.82
2023-03-26T23:20:06.045Z,5.64
2023-03-26T23:22:32.507Z,5.64
2023-03-26T23:24:58.918Z,5.67
2023-03-26T23:27:25.312Z,5.67
2023-03-26T23:29:51.728Z,5.74
2023-03-26T23:32:23.360Z,5.80
2023-03-26T23:34:52.042Z,5.84
2023-03-26T23:37:22.951Z,5.85
2023-03-26T23:39:50.592Z,5.84
2023-03-26T23:42:17.597Z,5.92
2023-03-26T23:44:56.553Z,5.99
2023-03-26T23:47:23.124Z,6.03
2023-03-26T23:49:49.863Z,6.10
2023-03-26T23:52:16.543Z,6.06
2023-03-26T23:54:43.032Z,6.04
2023-03-26T23:57:10.550Z,6.05
2023-03-26T23:59:37.068Z,6.08
